Time;durP1;ratioP1;P1;durP2;ratioP2;P2;SDS_P1;SDS_P2;PMS_P1;PMS_P2;Temp;Humidity;BMP_temperature;BMP_pressure;BME280_temperature;BME280_humidity;BME280_pressure;Samples;Min_cycle;Max_cycle;Signal;HPM_P1;HPM_P2
2023/05/08 00:00:13;;;;;;;11.60;9.68;;;12.40;99.90;;;;;;5090856;28;20036;-77
2023/05/08 00:02:40;;;;;;;11.38;10.00;;;12.40;99.90;;;;;;5090257;28;20407;-78
2023/05/08 00:05:06;;;;;;;10.35;9.23;;;12.30;99.90;;;;;;5090245;28;20040;-78
2023/05/08 00:07:31;;;;;;;10.93;9.23;;;12.30;99.90;;;;;;5090894;28;20129;-78
2023/05/08 00:09:57;;;;;;;10.50;9.07;;;12.30;99.90;;;;;;5090909;28;20064;-78
2023/05/08 00:12:22;;;;;;;12.75;10.10;;;12.30;99.90;;;;;;5090670;28;20114;-78
2023/05/08 00:14:48;;;;;;;14.00;9.57;;;12.30;99.90;;;;;;5090998;28;20125;-78
2023/05/08 00:17:13;;;;;;;9.90;8.77;;;12.20;99.90;;;;;;5090900;28;20533;-78
2023/05/08 00:19:39;;;;;;;11.23;9.00;;;12.20;99.90;;;;;;5055304;28;20080;-77
2023/05/08 00:22:04;;;;;;;10.35;9.07;;;12.20;99.90;;;;;;5070304;28;20500;-77
2023/05/08 00:24:30;;;;;;;10.80;9.60;;;12.10;99.90;;;;;;5086839;28;20051;-77
2023/05/08 00:26:55;;;;;;;13.18;9.45;;;12.10;99.90;;;;;;5090309;28;20082;-78
2023/05/08 00:29:21;;;;;;;10.23;9.18;;;12.10;99.90;;;;;;5090183;28;20438;-77
2023/05/08 00:31:46;;;;;;;13.23;9.70;;;12.10;99.90;;;;;;5090798;28;20035;-77
2023/05/08 00:34:12;;;;;;;11.23;9.85;;;12.10;99.90;;;;;;5090319;28;20036;-77
2023/05/08 00:36:37;;;;;;;11.25;10.02;;;12.20;99.90;;;;;;5090232;28;20039;-77
2023/05/08 00:39:03;;;;;;;12.75;10.18;;;12.10;99.90;;;;;;5090090;28;20043;-78
2023/05/08 00:41:28;;;;;;;10.98;9.80;;;12.10;99.90;;;;;;5090057;28;20110;-77
2023/05/08 00:43:54;;;;;;;12.15;9.77;;;12.00;99.90;;;;;;5090414;28;20100;-77
2023/05/08 00:46:19;;;;;;;11.52;9.60;;;12.00;99.90;;;;;;5090128;28;20036;-77
2023/05/08 00:48:46;;;;;;;11.57;10.18;;;12.00;99.90;;;;;;5089922;28;20032;-78
2023/05/08 00:51:12;;;;;;;11.63;10.40;;;12.00;99.90;;;;;;5090169;28;20060;-77
2023/05/08 00:53:41;;;;;;;11.95;10.00;;;12.00;99.90;;;;;;5089787;28;20032;-77
2023/05/08 00:56:10;;;;;;;11.57;10.23;;;12.00;99.90;;;;;;5096446;28;20035;-77
2023/05/08 00:58:37;;;;;;;11.75;10.55;;;11.90;99.90;;;;;;5097017;28;20498;-77
2023/05/08 01:01:03;;;;;;;12.10;10.65;;;11.90;99.90;;;;;;5090009;28;20119;-78
2023/05/08 01:03:29;;;;;;;12.98;10.48;;;11.80;99.90;;;;;;5107139;28;20062;-77
2023/05/08 01:05:55;;;;;;;13.68;10.80;;;11.80;99.90;;;;;;5106914;28;20040;-77
2023/05/08 01:08:21;;;;;;;11.77;10.23;;;11.80;99.90;;;;;;5106838;28;20043;-77
2023/05/08 01:11:10;;;;;;;11.13;9.90;;;11.80;99.90;;;;;;5090226;28;20042;-77
2023/05/08 01:13:51;;;;;;;11.85;10.23;;;11.80;99.90;;;;;;5057453;28;20036;-77
2023/05/08 01:16:25;;;;;;;11.18;10.00;;;11.80;99.90;;;;;;5089265;28;20039;-77
2023/05/08 01:19:08;;;;;;;12.77;11.02;;;11.70;99.90;;;;;;5106692;28;20047;-76
2023/05/08 01:21:50;;;;;;;12.40;10.38;;;11.60;99.90;;;;;;5089788;28;20036;-77
2023/05/08 01:25:14;;;;;;;13.10;10.38;;;11.60;99.90;;;;;;5090001;28;20052;-76
2023/05/08 01:28:08;;;;;;;12.70;10.82;;;11.60;99.90;;;;;;5011757;28;20038;-76
2023/05/08 01:30:53;;;;;;;;;;;11.50;99.90;;;;;;5012314;28;20532;-76
2023/05/08 01:33:32;;;;;;;13.43;10.88;;;11.50;99.90;;;;;;5061321;28;20372;-76
2023/05/08 01:36:16;;;;;;;12.63;10.57;;;11.40;99.90;;;;;;5089602;28;20044;-77
2023/05/08 01:38:49;;;;;;;;;;;11.40;99.90;;;;;;5090177;28;20124;-76
2023/05/08 01:41:27;;;;;;;11.70;10.07;;;11.40;99.90;;;;;;5089707;28;19920;-76
2023/05/08 01:44:09;;;;;;;12.27;10.82;;;11.40;99.90;;;;;;5077114;28;20043;-76
2023/05/08 01:46:35;;;;;;;13.07;11.25;;;11.40;99.90;;;;;;5089420;28;20072;-76
2023/05/08 01:49:33;;;;;;;12.50;10.82;;;11.40;99.90;;;;;;5089375;28;20074;-76
2023/05/08 01:52:03;;;;;;;15.68;12.73;;;11.30;99.90;;;;;;5060704;28;20048;-76
2023/05/08 01:54:38;;;;;;;13.15;11.35;;;11.30;99.90;;;;;;5080083;28;20120;-76
2023/05/08 01:57:06;;;;;;;13.25;11.30;;;11.30;99.90;;;;;;5103843;28;20063;-76
2023/05/08 01:59:33;;;;;;;15.10;11.38;;;11.20;99.90;;;;;;5089321;28;20101;-77
2023/05/08 02:02:01;;;;;;;14.63;11.82;;;11.20;99.90;;;;;;5089350;28;20056;-76
2023/05/08 02:04:27;;;;;;;12.65;11.30;;;11.20;99.90;;;;;;5089300;28;20034;-76
2023/05/08 02:06:56;;;;;;;12.40;10.77;;;11.20;99.90;;;;;;5089278;28;20045;-76
2023/05/08 02:09:22;;;;;;;14.88;12.20;;;11.20;99.90;;;;;;5089150;28;20044;-76
2023/05/08 02:11:48;;;;;;;13.27;11.10;;;11.20;99.90;;;;;;5089414;28;20511;-76
2023/05/08 02:14:18;;;;;;;13.68;11.57;;;11.10;99.90;;;;;;5089181;28;20039;-77
2023/05/08 02:16:46;;;;;;;13.73;11.90;;;11.20;99.90;;;;;;5089305;28;20089;-76
2023/05/08 02:19:14;;;;;;;14.07;11.93;;;11.10;99.90;;;;;;5089181;28;20126;-76
2023/05/08 02:21:40;;;;;;;15.25;12.52;;;11.10;99.90;;;;;;5089147;28;20037;-76
2023/05/08 02:24:07;;;;;;;13.88;12.05;;;11.10;99.90;;;;;;5106321;28;20177;-76
2023/05/08 02:26:33;;;;;;;14.95;11.82;;;11.10;99.90;;;;;;5089403;28;20047;-76
2023/05/08 02:29:01;;;;;;;15.25;12.23;;;11.00;99.90;;;;;;5092611;28;20040;-76
2023/05/08 02:31:28;;;;;;;15.18;12.25;;;11.00;99.90;;;;;;5075803;28;20032;-76
2023/05/08 02:33:56;;;;;;;13.75;11.57;;;11.00;99.90;;;;;;5076165;28;20406;-76
2023/05/08 02:36:22;;;;;;;14.65;11.38;;;11.00;99.90;;;;;;5092370;28;20043;-76
2023/05/08 02:38:51;;;;;;;14.02;12.10;;;10.90;99.90;;;;;;5092393;28;20533;-76
2023/05/08 02:41:21;;;;;;;14.75;11.68;;;10.90;99.90;;;;;;5092491;28;20040;-76
2023/05/08 02:43:47;;;;;;;14.80;11.90;;;10.90;99.90;;;;;;5092503;28;20050;-76
2023/05/08 02:46:27;;;;;;;12.98;11.27;;;10.80;99.90;;;;;;5092491;28;20075;-76
2023/05/08 02:49:15;;;;;;;13.35;10.68;;;10.80;99.90;;;;;;5092157;28;20046;-76
2023/05/08 02:51:55;;;;;;;13.63;10.88;;;10.80;99.90;;;;;;5092292;28;20329;-76
2023/05/08 02:54:35;;;;;;;14.38;11.82;;;10.80;99.90;;;;;;5109317;28;20066;-76
2023/05/08 02:57:09;;;;;;;14.07;12.00;;;10.70;99.90;;;;;;5106388;28;20387;-76
2023/05/08 02:59:41;;;;;;;15.40;12.15;;;10.70;99.90;;;;;;5092448;28;20517;-76
2023/05/08 03:02:14;;;;;;;15.75;11.88;;;10.60;99.90;;;;;;5092237;28;20089;-76
2023/05/08 03:04:48;;;;;;;13.82;11.48;;;10.60;99.90;;;;;;5078822;28;20033;-76
2023/05/08 03:07:15;;;;;;;14.60;12.20;;;10.60;99.90;;;;;;5092033;28;20032;-76
2023/05/08 03:09:46;;;;;;;14.48;11.98;;;10.60;99.90;;;;;;5091831;28;20032;-76
2023/05/08 03:12:20;;;;;;;14.25;11.70;;;10.60;99.90;;;;;;5092009;28;20522;-76
2023/05/08 03:14:55;;;;;;;14.32;11.18;;;10.50;99.90;;;;;;5091956;28;20093;-77
2023/05/08 03:17:23;;;;;;;14.27;11.70;;;10.50;99.90;;;;;;5108882;28;20123;-76
2023/05/08 03:19:53;;;;;;;15.20;11.85;;;10.50;99.90;;;;;;5074667;28;20093;-76
2023/05/08 03:22:21;;;;;;;14.48;11.98;;;10.50;99.90;;;;;;5091777;28;20474;-77
2023/05/08 03:24:48;;;;;;;13.52;11.75;;;10.50;99.90;;;;;;5091741;28;20040;-76
2023/05/08 03:27:15;;;;;;;13.98;11.98;;;10.40;99.90;;;;;;5108901;28;20044;-77
2023/05/08 03:29:42;;;;;;;13.93;11.63;;;10.40;99.90;;;;;;5091678;28;20044;-77
2023/05/08 03:32:10;;;;;;;15.95;11.52;;;10.40;99.90;;;;;;5091592;28;20036;-77
2023/05/08 03:34:36;;;;;;;13.38;11.52;;;10.40;99.90;;;;;;5091347;28;20519;-77
2023/05/08 03:37:02;;;;;;;14.70;11.30;;;10.40;99.90;;;;;;5091421;28;20048;-76
2023/05/08 03:39:28;;;;;;;15.75;12.40;;;10.40;99.90;;;;;;5091063;28;20520;-76
2023/05/08 03:41:55;;;;;;;14.68;11.43;;;10.30;99.90;;;;;;5108290;28;20212;-76
2023/05/08 03:44:22;;;;;;;15.13;12.07;;;10.30;99.90;;;;;;5091340;28;20040;-76
2023/05/08 03:46:49;;;;;;;17.23;11.82;;;10.30;99.90;;;;;;5091212;28;20032;-77
2023/05/08 03:49:17;;;;;;;14.20;12.00;;;10.20;99.90;;;;;;5090933;28;20032;-77
2023/05/08 03:51:43;;;;;;;15.70;11.75;;;10.20;99.90;;;;;;5090997;28;20044;-77
2023/05/08 03:54:08;;;;;;;14.02;11.88;;;10.20;99.90;;;;;;5074107;28;20127;-77
2023/05/08 03:56:34;;;;;;;14.23;11.32;;;10.20;99.90;;;;;;5101218;28;20122;-77
2023/05/08 03:59:15;;;;;;;14.18;11.18;;;10.20;99.90;;;;;;5095078;28;20036;-77
2023/05/08 04:02:09;;;;;;;14.27;12.00;;;10.20;99.90;;;;;;5074070;28;20118;-76
2023/05/08 04:04:39;;;;;;;14.60;11.63;;;10.20;99.90;;;;;;5107931;28;20114;-76
2023/05/08 04:07:21;;;;;;;14.10;11.40;;;10.20;99.90;;;;;;5090822;28;20043;-76
2023/05/08 04:10:12;;;;;;;13.68;11.55;;;10.10;99.90;;;;;;5077434;28;20168;-76
2023/05/08 04:12:50;;;;;;;14.85;11.52;;;10.10;99.90;;;;;;5090792;28;20036;-76
2023/05/08 04:15:27;;;;;;;15.32;12.00;;;10.10;99.90;;;;;;5107866;28;20044;-76
2023/05/08 04:17:58;;;;;;;14.52;11.35;;;10.10;99.90;;;;;;5090478;28;20119;-77
2023/05/08 04:20:26;;;;;;;13.00;10.77;;;10.10;99.90;;;;;;5090581;28;20040;-77
2023/05/08 04:22:53;;;;;;;13.75;11.10;;;10.10;99.90;;;;;;5073634;28;20048;-77
2023/05/08 04:25:20;;;;;;;14.20;11.68;;;10.20;99.90;;;;;;5090713;28;20036;-77
2023/05/08 04:27:46;;;;;;;13.55;11.40;;;10.20;99.90;;;;;;5073442;28;20032;-78
2023/05/08 04:30:13;;;;;;;13.07;11.30;;;10.20;99.90;;;;;;5107343;28;20055;-77
2023/05/08 04:32:40;;;;;;;14.88;11.40;;;10.20;99.90;;;;;;5107456;28;20052;-77
2023/05/08 04:35:06;;;;;;;15.95;10.77;;;10.30;99.90;;;;;;5090550;28;20407;-76
2023/05/08 04:37:32;;;;;;;14.07;11.00;;;10.30;99.90;;;;;;5090386;28;20066;-77
2023/05/08 04:39:59;;;;;;;13.55;10.98;;;10.30;99.90;;;;;;5090808;28;20036;-77
2023/05/08 04:42:25;;;;;;;13.75;11.23;;;10.40;99.90;;;;;;5090242;28;20044;-77
2023/05/08 04:44:51;;;;;;;13.35;11.02;;;10.40;99.90;;;;;;5090472;28;20428;-78
2023/05/08 04:47:17;;;;;;;12.18;10.30;;;10.40;99.90;;;;;;5090384;28;20503;-77
2023/05/08 04:49:42;;;;;;;13.00;11.38;;;10.50;99.90;;;;;;5089350;28;20227;-78
2023/05/08 04:52:08;;;;;;;12.55;10.55;;;10.60;99.90;;;;;;5090160;28;20495;-77
2023/05/08 04:54:34;;;;;;;12.60;10.57;;;10.60;99.90;;;;;;5089951;28;20476;-77
2023/05/08 04:56:59;;;;;;;13.10;10.73;;;10.60;99.90;;;;;;5100147;28;20047;-77
2023/05/08 04:59:25;;;;;;;14.77;11.00;;;10.70;99.90;;;;;;5090449;28;20036;-78
2023/05/08 05:01:50;;;;;;;12.13;10.82;;;10.70;99.90;;;;;;5101805;28;20126;-77
2023/05/08 05:04:16;;;;;;;13.68;11.23;;;10.80;99.90;;;;;;5092489;28;20043;-78
2023/05/08 05:06:41;;;;;;;11.57;9.88;;;10.80;99.90;;;;;;5089923;28;20123;-76
2023/05/08 05:09:08;;;;;;;11.75;10.43;;;10.90;99.90;;;;;;5089540;28;20491;-76
2023/05/08 05:11:33;;;;;;;12.43;10.43;;;10.90;99.90;;;;;;5090034;28;20142;-78
2023/05/08 05:13:59;;;;;;;12.07;10.52;;;11.00;99.90;;;;;;5089983;28;20674;-77
2023/05/08 05:16:25;;;;;;;12.52;10.43;;;11.00;99.90;;;;;;5089803;28;20427;-77
2023/05/08 05:18:50;;;;;;;12.02;10.73;;;11.10;99.90;;;;;;5089640;28;20148;-77
2023/05/08 05:21:16;;;;;;;11.60;10.07;;;11.10;99.90;;;;;;5089745;28;20036;-77
2023/05/08 05:23:41;;;;;;;13.27;10.52;;;11.20;99.90;;;;;;5073557;28;20043;-77
2023/05/08 05:26:07;;;;;;;11.18;9.82;;;11.20;99.90;;;;;;5091093;28;20403;-76
2023/05/08 05:28:32;;;;;;;12.15;10.23;;;11.30;99.90;;;;;;5089952;28;20526;-78
2023/05/08 05:30:58;;;;;;;11.50;10.00;;;11.30;99.90;;;;;;5089833;28;20059;-77
2023/05/08 05:33:24;;;;;;;12.45;9.95;;;11.40;99.90;;;;;;5089814;28;20044;-77
2023/05/08 05:35:50;;;;;;;13.05;9.90;;;11.40;99.90;;;;;;5061570;28;20037;-78
2023/05/08 05:38:16;;;;;;;12.32;10.00;;;11.50;99.90;;;;;;5086874;28;20122;-78
2023/05/08 05:40:42;;;;;;;10.57;9.32;;;11.60;99.90;;;;;;5072785;28;20048;-78
2023/05/08 05:43:07;;;;;;;11.38;9.88;;;11.60;99.90;;;;;;5058576;28;20249;-78
2023/05/08 05:45:33;;;;;;;12.32;9.80;;;11.70;99.90;;;;;;5065484;28;20103;-79
2023/05/08 05:47:58;;;;;;;10.68;9.57;;;11.80;99.90;;;;;;5069270;28;20041;-77
2023/05/08 05:50:25;;;;;;;11.73;9.68;;;11.90;99.90;;;;;;5069822;28;20062;-77
2023/05/08 05:52:50;;;;;;;12.32;9.15;;;11.90;99.90;;;;;;5081121;28;20526;-79
2023/05/08 05:55:16;;;;;;;12.90;9.30;;;12.00;99.90;;;;;;5090293;28;20032;-79
2023/05/08 05:57:41;;;;;;;11.40;10.15;;;12.10;99.90;;;;;;5104171;28;20043;-78
2023/05/08 06:00:08;;;;;;;12.13;9.43;;;12.20;99.90;;;;;;5089511;28;20048;-78
2023/05/08 06:02:35;;;;;;;10.90;9.80;;;12.20;99.90;;;;;;5093245;28;20032;-77
2023/05/08 06:05:01;;;;;;;11.20;9.98;;;12.30;99.90;;;;;;5094160;28;20168;-79
2023/05/08 06:07:26;;;;;;;10.85;8.88;;;12.50;99.90;;;;;;5094136;28;20039;-79
2023/05/08 06:09:52;;;;;;;12.65;9.68;;;12.60;99.90;;;;;;5093645;28;20032;-80
2023/05/08 06:12:18;;;;;;;11.45;9.50;;;12.80;99.90;;;;;;5094157;28;20036;-78
2023/05/08 06:14:43;;;;;;;10.75;9.48;;;13.00;99.90;;;;;;5095133;28;20067;-79
2023/05/08 06:17:09;;;;;;;12.48;10.00;;;13.00;99.90;;;;;;5093876;28;20076;-80
2023/05/08 06:19:35;;;;;;;10.57;9.38;;;13.20;99.90;;;;;;5094456;28;20044;-80
2023/05/08 06:22:01;;;;;;;10.40;9.30;;;13.20;99.90;;;;;;5094423;28;20066;-80
2023/05/08 06:24:27;;;;;;;10.73;9.57;;;13.20;99.90;;;;;;5093496;28;20048;-82
2023/05/08 06:26:52;;;;;;;14.63;9.32;;;13.30;99.90;;;;;;5094031;28;20434;-79
2023/05/08 06:29:18;;;;;;;10.32;8.82;;;13.40;99.90;;;;;;5094518;28;20047;-81
2023/05/08 06:31:43;;;;;;;10.13;9.00;;;13.50;99.90;;;;;;5094417;28;20040;-82
2023/05/08 06:34:09;;;;;;;9.77;8.77;;;13.60;99.90;;;;;;5094049;28;20119;-82
2023/05/08 06:36:35;;;;;;;11.13;9.40;;;13.70;99.90;;;;;;5094019;28;20031;-82
2023/05/08 06:39:04;;;;;;;10.68;9.30;;;13.80;99.90;;;;;;5094559;28;20036;-82
2023/05/08 06:41:29;;;;;;;10.95;9.85;;;13.90;99.90;;;;;;5093810;28;20556;-80
2023/05/08 06:43:55;;;;;;;11.15;9.32;;;13.90;99.90;;;;;;5094186;28;20121;-81
2023/05/08 06:46:20;;;;;;;12.10;9.52;;;13.90;99.90;;;;;;5094038;28;20096;-81
2023/05/08 06:48:46;;;;;;;11.40;9.73;;;13.90;99.90;;;;;;5093527;28;20491;-83
2023/05/08 06:51:12;;;;;;;10.52;9.20;;;13.90;99.90;;;;;;5094407;28;20044;-84
2023/05/08 06:53:37;;;;;;;10.75;9.50;;;14.00;99.90;;;;;;5092961;28;20047;-84
2023/05/08 06:56:03;;;;;;;11.57;9.88;;;14.00;99.90;;;;;;5099020;28;20035;-83
2023/05/08 06:58:30;;;;;;;11.48;9.35;;;14.10;99.90;;;;;;5101894;28;20066;-82
2023/05/08 07:00:56;;;;;;;10.93;9.13;;;14.10;99.90;;;;;;5092940;28;20457;-83
2023/05/08 07:03:21;;;;;;;11.23;9.20;;;14.20;99.90;;;;;;5093497;28;20040;-81
2023/05/08 07:05:47;;;;;;;10.60;9.48;;;14.30;99.90;;;;;;5092947;28;20028;-83
2023/05/08 07:08:12;;;;;;;10.70;9.55;;;14.40;99.90;;;;;;5068185;28;20086;-83
2023/05/08 07:10:38;;;;;;;10.68;9.23;;;14.40;99.90;;;;;;5087571;28;20399;-81
2023/05/08 07:13:03;;;;;;;11.25;9.95;;;14.50;99.90;;;;;;5092677;28;20028;-81
2023/05/08 07:15:31;;;;;;;11.05;9.75;;;14.40;99.90;;;;;;5064156;28;20037;-83
2023/05/08 07:17:56;;;;;;;11.23;10.00;;;14.50;99.90;;;;;;5090982;28;20028;-82
2023/05/08 07:20:23;;;;;;;11.73;10.00;;;14.50;99.90;;;;;;5092996;28;20108;-86
2023/05/08 07:22:48;;;;;;;11.73;9.55;;;14.40;99.90;;;;;;5092888;28;20040;-82
2023/05/08 07:25:15;;;;;;;11.20;9.45;;;14.40;99.90;;;;;;5093380;28;20063;-84
2023/05/08 07:27:40;;;;;;;11.18;9.60;;;14.40;99.90;;;;;;5092660;28;20036;-83
2023/05/08 07:30:06;;;;;;;11.63;9.13;;;14.50;99.90;;;;;;5089873;28;20076;-85
2023/05/08 07:32:32;;;;;;;11.35;9.50;;;14.50;99.90;;;;;;5080947;28;20047;-81
2023/05/08 07:34:58;;;;;;;11.18;9.07;;;14.40;99.90;;;;;;5091221;28;20478;-84
2023/05/08 07:37:24;;;;;;;10.45;9.30;;;14.50;99.90;;;;;;5092685;28;20078;-83
2023/05/08 07:39:49;;;;;;;9.77;8.77;;;14.60;99.90;;;;;;5092101;28;20040;-83
2023/05/08 07:42:17;;;;;;;11.45;9.70;;;14.60;99.90;;;;;;5068440;28;20036;-80
2023/05/08 07:44:42;;;;;;;10.60;9.50;;;14.80;99.90;;;;;;5073056;28;20075;-81
2023/05/08 07:47:08;;;;;;;10.57;9.30;;;14.80;99.90;;;;;;5092764;28;20068;-80
2023/05/08 07:49:33;;;;;;;10.57;9.48;;;14.90;99.90;;;;;;5093743;28;20043;-83
2023/05/08 07:51:59;;;;;;;11.98;9.88;;;15.00;99.90;;;;;;5061786;28;20035;-80
2023/05/08 07:54:25;;;;;;;10.93;9.82;;;15.00;99.90;;;;;;5065290;28;20059;-81
2023/05/08 07:56:53;;;;;;;10.75;9.63;;;15.00;99.90;;;;;;5085128;28;20040;-82
2023/05/08 07:59:19;;;;;;;10.57;9.52;;;14.90;99.90;;;;;;5092540;28;20043;-82
2023/05/08 08:01:46;;;;;;;11.10;9.27;;;15.00;99.90;;;;;;5092569;28;20495;-83
2023/05/08 08:04:13;;;;;;;11.15;9.77;;;15.00;99.90;;;;;;5091640;28;20134;-83
2023/05/08 08:06:39;;;;;;;11.10;9.63;;;15.10;99.90;;;;;;5092655;28;20040;-82
2023/05/08 08:09:05;;;;;;;10.70;9.60;;;15.30;99.90;;;;;;5092794;28;20035;-81
2023/05/08 08:11:30;;;;;;;11.02;9.90;;;15.40;99.90;;;;;;5092613;28;20036;-81
2023/05/08 08:13:56;;;;;;;10.65;8.85;;;15.50;99.90;;;;;;5092313;28;20414;-80
2023/05/08 08:16:21;;;;;;;11.50;10.30;;;15.60;99.90;;;;;;5091630;28;20040;-81
2023/05/08 08:18:47;;;;;;;12.25;8.75;;;15.50;99.90;;;;;;5092550;28;20036;-80
2023/05/08 08:21:13;;;;;;;11.77;10.35;;;15.60;99.90;;;;;;5092409;28;20032;-81
2023/05/08 08:23:38;;;;;;;10.38;9.27;;;15.60;99.90;;;;;;5091673;28;20039;-80
2023/05/08 08:26:04;;;;;;;11.30;9.52;;;15.70;99.90;;;;;;5091232;28;20040;-81
2023/05/08 08:28:30;;;;;;;10.73;9.63;;;15.80;99.90;;;;;;5092173;28;20114;-81
2023/05/08 08:30:55;;;;;;;12.43;9.30;;;16.00;99.90;;;;;;5092821;28;20040;-81
2023/05/08 08:33:21;;;;;;;11.48;9.75;;;16.00;99.90;;;;;;5092390;28;20040;-81
2023/05/08 08:35:46;;;;;;;10.45;9.45;;;16.00;99.90;;;;;;5091372;28;20184;-80
2023/05/08 08:38:12;;;;;;;11.25;9.45;;;16.10;99.90;;;;;;5091596;28;20435;-80
2023/05/08 08:40:39;;;;;;;10.35;9.35;;;16.10;99.90;;;;;;5091373;28;20470;-80
2023/05/08 08:43:05;;;;;;;10.93;9.82;;;16.10;99.90;;;;;;5091474;28;20115;-81
2023/05/08 08:45:31;;;;;;;10.30;9.23;;;16.20;99.90;;;;;;5092214;28;20115;-80
2023/05/08 08:48:01;;;;;;;10.57;9.45;;;16.10;99.90;;;;;;5091834;28;20040;-80
2023/05/08 08:50:31;;;;;;;11.35;9.20;;;16.20;99.90;;;;;;5091465;28;20032;-79
2023/05/08 08:53:09;;;;;;;12.23;9.75;;;16.20;99.90;;;;;;5091721;28;20108;-80
2023/05/08 08:55:39;;;;;;;11.57;10.38;;;16.30;99.90;;;;;;5093336;28;20040;-82
2023/05/08 08:58:23;;;;;;;10.82;9.65;;;16.20;99.90;;;;;;5103316;28;20039;-79
2023/05/08 09:00:49;;;;;;;11.55;10.32;;;16.30;99.90;;;;;;5092093;28;20449;-80
2023/05/08 09:03:15;;;;;;;11.25;10.02;;;16.40;99.90;;;;;;5091257;28;20085;-79
2023/05/08 09:05:42;;;;;;;11.00;9.90;;;16.60;99.90;;;;;;5091313;28;20044;-79
2023/05/08 09:08:09;;;;;;;11.82;10.10;;;16.80;99.90;;;;;;5091323;28;20067;-80
2023/05/08 09:10:35;;;;;;;10.90;9.80;;;16.90;99.90;;;;;;5073969;28;20039;-79
2023/05/08 09:13:02;;;;;;;11.57;9.63;;;17.00;99.90;;;;;;5090532;28;20059;-78
2023/05/08 09:15:27;;;;;;;13.05;9.88;;;17.10;99.90;;;;;;5091846;28;20411;-79
2023/05/08 09:17:53;;;;;;;10.85;9.75;;;17.20;99.90;;;;;;5055639;28;20033;-78
2023/05/08 09:20:18;;;;;;;10.65;9.55;;;17.20;99.90;;;;;;5079328;28;20126;-78
2023/05/08 09:22:45;;;;;;;11.25;10.10;;;17.30;99.90;;;;;;5089784;28;20044;-78
2023/05/08 09:25:11;;;;;;;10.60;9.35;;;17.40;99.90;;;;;;5091656;28;20051;-79
2023/05/08 09:27:37;;;;;;;11.60;10.40;;;17.40;99.90;;;;;;5089995;28;20036;-77
2023/05/08 09:30:07;;;;;;;11.27;10.07;;;17.40;99.90;;;;;;5091314;28;20039;-79
2023/05/08 09:32:36;;;;;;;13.40;10.50;;;17.50;99.90;;;;;;5090432;28;20056;-79
2023/05/08 09:35:02;;;;;;;11.10;9.73;;;17.60;99.90;;;;;;5091803;28;20067;-80
2023/05/08 09:37:28;;;;;;;10.55;9.45;;;17.60;99.90;;;;;;5094705;28;20513;-79
2023/05/08 09:39:54;;;;;;;11.80;10.20;;;17.50;99.90;;;;;;5095111;28;20036;-79
2023/05/08 09:42:20;;;;;;;13.25;10.35;;;17.80;99.90;;;;;;5094438;28;20531;-78
2023/05/08 09:44:51;;;;;;;11.18;10.00;;;17.80;99.90;;;;;;5094921;28;20032;-79
2023/05/08 09:47:21;;;;;;;11.48;10.27;;;17.80;99.90;;;;;;5094050;28;20036;-79
2023/05/08 09:50:03;;;;;;;11.75;10.57;;;18.00;99.90;;;;;;5093926;28;20115;-78
2023/05/08 09:52:30;;;;;;;11.70;9.98;;;18.10;99.90;;;;;;5094797;28;20048;-80
2023/05/08 09:55:15;;;;;;;12.45;10.23;;;18.30;99.90;;;;;;5094159;28;20551;-78
2023/05/08 09:57:55;;;;;;;10.45;9.35;;;18.50;99.90;;;;;;5108942;28;20044;-81
2023/05/08 10:00:21;;;;;;;11.10;9.65;;;18.60;99.90;;;;;;5094833;28;20115;-80
2023/05/08 10:02:56;;;;;;;12.15;10.45;;;18.80;99.90;;;;;;5094436;28;20048;-79
2023/05/08 10:05:28;;;;;;;11.10;9.93;;;18.90;99.90;;;;;;5094478;28;20440;-80
2023/05/08 10:07:54;;;;;;;11.77;10.57;;;19.00;99.90;;;;;;5094324;28;20445;-79
2023/05/08 10:10:29;;;;;;;12.13;10.75;;;19.10;99.90;;;;;;5093809;28;20055;-80
2023/05/08 10:12:56;;;;;;;12.18;10.93;;;19.10;99.90;;;;;;5094263;28;20036;-80
2023/05/08 10:15:29;;;;;;;12.63;10.75;;;19.30;99.90;;;;;;5077713;28;20094;-79
2023/05/08 10:17:58;;;;;;;;;;;19.30;99.90;;;;;;5094542;28;20120;-80
2023/05/08 10:20:29;;;;;;;13.30;11.10;;;19.40;99.90;;;;;;5094032;28;20462;-81
2023/05/08 10:22:56;;;;;;;12.27;11.07;;;19.50;99.90;;;;;;5093823;28;20052;-82
2023/05/08 10:25:22;;;;;;;12.63;11.40;;;19.50;99.90;;;;;;5094233;28;20061;-80
2023/05/08 10:27:54;;;;;;;12.90;11.60;;;19.60;99.90;;;;;;5095314;28;20032;-79
2023/05/08 10:30:24;;;;;;;13.45;10.80;;;19.70;99.90;;;;;;5097181;28;20028;-82
2023/05/08 10:32:53;;;;;;;13.07;11.77;;;19.70;99.90;;;;;;5095512;28;20032;-80
2023/05/08 10:35:20;;;;;;;13.38;11.48;;;19.90;99.90;;;;;;5094719;28;20111;-81
2023/05/08 10:37:47;;;;;;;12.60;10.50;;;20.10;99.90;;;;;;5111416;28;20039;-82
2023/05/08 10:40:17;;;;;;;13.75;11.30;;;20.10;99.90;;;;;;5094964;28;20036;-82
2023/05/08 10:42:43;;;;;;;14.38;11.95;;;20.20;99.90;;;;;;5095360;28;20036;-81
2023/05/08 10:45:10;;;;;;;12.90;11.60;;;20.30;99.90;;;;;;5094891;28;20563;-82
2023/05/08 10:47:53;;;;;;;13.55;11.80;;;20.50;99.90;;;;;;5094547;28;20040;-81
2023/05/08 10:50:36;;;;;;;12.33;11.03;;;20.60;99.90;;;;;;5095639;28;20038;-80
2023/05/08 10:53:12;;;;;;;15.10;12.57;;;20.80;99.90;;;;;;5094564;28;20050;-81
2023/05/08 10:55:41;;;;;;;16.23;13.00;;;20.80;99.90;;;;;;5096617;28;20056;-83
2023/05/08 10:58:16;;;;;;;14.02;12.20;;;20.90;99.90;;;;;;5108905;28;20044;-81
2023/05/08 11:00:51;;;;;;;12.85;11.48;;;21.00;99.90;;;;;;5095788;28;20442;-83
2023/05/08 11:03:17;;;;;;;11.82;10.63;;;21.10;99.90;;;;;;5077792;28;20127;-83
2023/05/08 11:05:47;;;;;;;12.20;10.90;;;21.10;99.90;;;;;;5095024;28;20522;-82
2023/05/08 11:08:26;;;;;;;12.32;11.07;;;21.30;99.90;;;;;;5094318;28;20036;-81
2023/05/08 11:11:05;;;;;;;12.63;11.07;;;21.40;99.90;;;;;;5095395;28;20095;-79
2023/05/08 11:13:34;;;;;;;12.77;11.15;;;21.50;99.90;;;;;;5093892;28;20088;-82
2023/05/08 11:16:00;;;;;;;12.15;10.95;;;21.70;99.90;;;;;;5092912;28;20407;-82
2023/05/08 11:18:26;;;;;;;13.07;11.75;;;21.80;99.90;;;;;;5082578;28;20028;-83
2023/05/08 11:21:02;;;;;;;15.85;11.95;;;21.90;99.90;;;;;;5112462;28;20119;-84
2023/05/08 11:23:37;;;;;;;11.80;10.63;;;21.90;99.90;;;;;;5094429;28;20176;-79
2023/05/08 11:26:12;;;;;;;13.68;12.27;;;21.90;99.90;;;;;;5094126;28;20040;-79
2023/05/08 11:28:39;;;;;;;12.50;11.20;;;22.10;99.90;;;;;;5096258;28;20067;-81
2023/05/08 11:31:06;;;;;;;12.75;11.48;;;22.30;99.90;;;;;;5096087;28;20621;-83
2023/05/08 11:33:36;;;;;;;13.00;11.50;;;22.50;99.90;;;;;;5095157;28;20055;-83
2023/05/08 11:36:19;;;;;;;11.70;10.27;;;22.40;99.90;;;;;;5093931;28;20119;-81
2023/05/08 11:39:06;;;;;;;12.63;10.93;;;22.40;99.90;;;;;;5080648;28;20039;-80
2023/05/08 11:41:32;;;;;;;11.45;9.75;;;22.70;99.90;;;;;;5094590;28;20044;-83
2023/05/08 11:43:58;;;;;;;11.00;9.85;;;22.90;99.90;;;;;;5068915;28;20115;-81
2023/05/08 11:46:41;;;;;;;11.23;10.15;;;23.10;99.90;;;;;;5070632;28;20046;-80
2023/05/08 11:49:17;;;;;;;11.98;10.77;;;23.20;99.90;;;;;;5094476;28;20095;-82
2023/05/08 11:51:45;;;;;;;12.63;11.30;;;23.30;99.90;;;;;;5094245;28;20530;-84
2023/05/08 11:54:16;;;;;;;11.25;9.98;;;23.40;99.90;;;;;;5111586;28;20055;-82
2023/05/08 11:56:44;;;;;;;11.52;10.43;;;23.60;99.90;;;;;;5105103;28;20044;-80
2023/05/08 11:59:09;;;;;;;11.73;9.68;;;23.70;99.90;;;;;;5096294;28;20047;-81
2023/05/08 12:01:36;;;;;;;13.65;10.60;;;24.00;99.90;;;;;;5093904;28;20040;-80
2023/05/08 12:04:04;;;;;;;11.43;10.23;;;24.10;99.90;;;;;;5109955;28;20043;-85
2023/05/08 12:06:31;;;;;;;11.65;10.50;;;24.00;99.90;;;;;;5095716;28;20167;-81
2023/05/08 12:08:57;;;;;;;12.00;9.95;;;23.80;99.90;;;;;;5096283;28;20036;-81
2023/05/08 12:11:23;;;;;;;11.60;10.40;;;23.90;99.90;;;;;;5095102;28;20085;-82
2023/05/08 12:13:53;;;;;;;11.35;9.82;;;24.10;99.90;;;;;;5091059;28;20475;-80
2023/05/08 12:16:21;;;;;;;11.25;10.00;;;24.40;99.90;;;;;;5095129;28;20529;-80
2023/05/08 12:18:49;;;;;;;11.65;9.02;;;24.30;99.90;;;;;;5093478;28;20434;-83
2023/05/08 12:21:15;;;;;;;11.73;10.48;;;24.40;99.90;;;;;;5093277;28;20036;-81
2023/05/08 12:23:41;;;;;;;10.77;9.68;;;24.60;99.90;;;;;;5094264;28;20043;-81
2023/05/08 12:26:07;;;;;;;11.07;9.93;;;24.80;99.90;;;;;;5092536;28;20040;-81
2023/05/08 12:28:33;;;;;;;11.40;10.10;;;24.70;99.90;;;;;;5092546;28;20044;-82
2023/05/08 12:30:59;;;;;;;11.65;10.05;;;24.40;99.90;;;;;;5093245;28;20032;-83
2023/05/08 12:33:27;;;;;;;9.70;8.70;;;24.20;99.90;;;;;;5093536;28;20062;-84
2023/05/08 12:35:55;;;;;;;10.40;9.30;;;24.30;99.90;;;;;;5076747;28;20040;-82
2023/05/08 12:38:26;;;;;;;11.48;10.27;;;24.10;99.90;;;;;;5093456;28;20093;-83